createdAt,value
2022-10-19T00:03:10.455Z,8.40
2022-10-19T00:08:13.387Z,8.10
2022-10-19T00:13:16.588Z,8.50
2022-10-19T00:18:19.638Z,8.20
2022-10-19T00:23:23.052Z,8.30
2022-10-19T00:33:29.408Z,10.70
2022-10-19T00:38:32.438Z,9.80
2022-10-19T00:43:55.235Z,11.50
2022-10-19T00:49:05.871Z,10.50
2022-10-19T00:59:18.359Z,10.80
2022-10-19T01:04:26.361Z,10.60
2022-10-19T01:09:29.395Z,10.20
2022-10-19T01:14:53.655Z,11.50
2022-10-19T01:20:43.594Z,10.70
2022-10-19T01:26:23.438Z,10.80
2022-10-19T01:31:52.465Z,11.00
2022-10-19T01:37:18.380Z,11.80
2022-10-19T01:42:51.936Z,12.20
2022-10-19T01:48:01.488Z,11.90
2022-10-19T01:53:08.692Z,13.80
2022-10-19T01:58:18.334Z,11.50
2022-10-19T02:03:23.599Z,12.70
2022-10-19T02:08:37.986Z,12.70
2022-10-19T02:13:43.552Z,12.20
2022-10-19T02:18:50.824Z,11.90
2022-10-19T02:23:54.323Z,12.90
2022-10-19T02:28:58.279Z,12.20
2022-10-19T02:34:01.590Z,13.20
2022-10-19T02:39:05.130Z,12.30
2022-10-19T02:49:23.220Z,11.40
2022-10-19T02:54:27.441Z,12.10
2022-10-19T02:59:30.352Z,13.50
2022-10-19T03:04:33.233Z,13.50
2022-10-19T03:09:36.387Z,13.40
2022-10-19T03:14:39.584Z,13.60
2022-10-19T03:19:42.556Z,13.80
2022-10-19T03:24:45.508Z,13.10
2022-10-19T03:29:48.450Z,12.80
2022-10-19T03:34:51.370Z,13.10
2022-10-19T03:39:54.314Z,13.50
2022-10-19T03:44:57.478Z,13.50
2022-10-19T03:50:00.419Z,13.80
2022-10-19T03:55:03.390Z,15.10
2022-10-19T04:00:07.792Z,15.00
2022-10-19T04:05:10.719Z,15.80
2022-10-19T04:10:13.714Z,15.10
2022-10-19T04:15:16.712Z,16.10
2022-10-19T04:20:19.617Z,15.40
2022-10-19T04:25:22.557Z,14.10
2022-10-19T04:30:25.515Z,14.50
2022-10-19T04:35:28.583Z,15.80
2022-10-19T04:40:31.565Z,15.30
2022-10-19T04:45:36.076Z,14.20
2022-10-19T04:50:39.022Z,13.80
2022-10-19T04:55:42.787Z,14.10
2022-10-19T05:00:46.053Z,14.00
2022-10-19T05:05:50.041Z,13.70
2022-10-19T05:10:52.989Z,12.40
2022-10-19T05:15:58.620Z,13.20
2022-10-19T05:21:22.023Z,12.30
2022-10-19T05:26:28.001Z,11.50
2022-10-19T05:31:34.050Z,13.30
2022-10-19T05:36:40.991Z,12.80
2022-10-19T05:41:45.899Z,11.40
2022-10-19T05:46:50.725Z,11.50
2022-10-19T05:51:54.217Z,10.70
2022-10-19T06:01:59.946Z,9.20
2022-10-19T06:07:03.244Z,9.20
2022-10-19T06:12:06.166Z,10.20
2022-10-19T06:17:09.402Z,9.20
2022-10-19T06:22:12.294Z,9.80
2022-10-19T06:27:15.397Z,10.90
2022-10-19T06:32:18.541Z,11.90
2022-10-19T06:37:21.522Z,13.30
2022-10-19T06:42:24.496Z,15.40
2022-10-19T06:47:31.526Z,22.60
2022-10-19T06:52:36.133Z,14.00
2022-10-19T06:57:39.625Z,10.70
2022-10-19T07:02:42.634Z,12.30
2022-10-19T07:07:45.870Z,13.10
2022-10-19T07:12:48.819Z,17.50
2022-10-19T07:17:53.359Z,12.10
2022-10-19T07:22:56.232Z,12.10
2022-10-19T07:27:59.220Z,14.70
2022-10-19T07:33:02.125Z,12.20
2022-10-19T07:38:05.008Z,10.70
2022-10-19T07:43:07.950Z,10.60
2022-10-19T07:48:10.881Z,10.50
2022-10-19T07:53:13.774Z,10.70
2022-10-19T07:58:16.673Z,9.80
2022-10-19T08:04:13.771Z,10.60
2022-10-19T08:08:43.867Z,11.70
2022-10-19T08:13:47.615Z,11.40
2022-10-19T08:18:52.520Z,11.90
2022-10-19T08:23:55.998Z,11.90
2022-10-19T08:34:08.542Z,10.70
2022-10-19T08:39:12.947Z,11.60
2022-10-19T08:44:47.131Z,10.30
2022-10-19T08:49:50.320Z,9.70
2022-10-19T08:55:28.342Z,11.10
2022-10-19T09:00:48.844Z,9.30
2022-10-19T09:06:00.257Z,9.50
2022-10-19T09:11:03.178Z,9.60
2022-10-19T09:16:06.404Z,10.70
2022-10-19T09:21:43.302Z,9.20
2022-10-19T09:26:54.651Z,6.80
2022-10-19T09:32:01.506Z,6.80
2022-10-19T09:37:05.132Z,5.80
2022-10-19T09:42:50.133Z,5.10
2022-10-19T09:47:53.615Z,6.10
2022-10-19T09:58:14.421Z,6.50
2022-10-19T10:03:43.676Z,6.60
2022-10-19T10:08:50.984Z,5.60
2022-10-19T10:13:56.537Z,4.20
2022-10-19T10:19:11.525Z,5.60
2022-10-19T10:24:18.982Z,4.70
2022-10-19T10:29:32.940Z,4.60
2022-10-19T10:35:05.874Z,3.50
2022-10-19T10:40:31.530Z,3.90
2022-10-19T10:45:44.199Z,4.00
2022-10-19T10:50:47.996Z,4.40
2022-10-19T10:55:56.841Z,3.20
2022-10-19T11:01:07.723Z,3.50
2022-10-19T11:06:12.476Z,3.30
2022-10-19T11:11:22.418Z,4.10
2022-10-19T11:16:33.909Z,3.60
2022-10-19T11:21:55.754Z,3.80
2022-10-19T11:27:07.984Z,4.00
2022-10-19T11:32:25.257Z,4.10
2022-10-19T11:37:49.900Z,3.00
2022-10-19T11:43:29.441Z,3.60
2022-10-19T11:48:44.398Z,3.80
2022-10-19T11:54:06.970Z,4.50
2022-10-19T12:00:39.135Z,3.80
2022-10-19T12:06:45.828Z,3.00
2022-10-19T12:12:22.879Z,4.10
2022-10-19T12:17:34.443Z,4.20
2022-10-19T12:22:38.511Z,3.90
2022-10-19T12:27:42.180Z,4.10
2022-10-19T12:32:57.079Z,2.50
2022-10-19T12:38:22.258Z,2.60
2022-10-19T12:43:40.160Z,2.80
2022-10-19T12:48:43.064Z,2.90
2022-10-19T12:53:49.291Z,3.80
2022-10-19T12:59:01.661Z,4.00
2022-10-19T13:04:27.029Z,3.60
2022-10-19T13:09:44.820Z,5.40
2022-10-19T13:14:58.717Z,3.30
2022-10-19T13:20:14.064Z,5.10
2022-10-19T13:25:17.277Z,4.30
2022-10-19T13:30:38.459Z,3.60
2022-10-19T13:35:41.419Z,9.30
2022-10-19T13:40:47.355Z,6.20
2022-10-19T13:46:12.488Z,5.10
2022-10-19T13:51:48.671Z,5.20
2022-10-19T13:57:30.797Z,4.40
2022-10-19T14:03:05.394Z,5.90
2022-10-19T14:08:38.713Z,3.30
2022-10-19T14:13:42.438Z,3.80
2022-10-19T14:18:54.549Z,3.90
2022-10-19T14:23:57.669Z,4.00
2022-10-19T14:29:00.683Z,3.00
2022-10-19T14:34:07.762Z,3.80
2022-10-19T14:39:31.588Z,3.40
2022-10-19T14:44:43.568Z,3.20
2022-10-19T14:49:47.348Z,4.40
2022-10-19T14:54:53.260Z,4.60
2022-10-19T15:00:03.351Z,4.00
2022-10-19T15:05:19.427Z,4.90
2022-10-19T15:10:47.122Z,4.40
2022-10-19T15:15:54.668Z,5.10
2022-10-19T15:21:12.948Z,3.20
2022-10-19T15:26:22.018Z,4.90
2022-10-19T15:31:28.413Z,5.40
2022-10-19T15:36:32.964Z,5.10
2022-10-19T15:41:40.107Z,7.30
2022-10-19T15:46:49.045Z,8.00
2022-10-19T15:51:52.089Z,5.10
2022-10-19T15:56:56.550Z,9.50
2022-10-19T16:01:59.522Z,17.90
2022-10-19T16:07:02.513Z,7.90
2022-10-19T16:12:05.609Z,6.60
2022-10-19T16:17:13.222Z,12.30
2022-10-19T16:22:16.902Z,5.10
2022-10-19T16:27:19.819Z,66.70
2022-10-19T16:32:22.739Z,178.40
2022-10-19T16:37:25.648Z,270.70
2022-10-19T16:42:30.551Z,34.10
2022-10-19T16:47:33.684Z,15.90
2022-10-19T16:52:37.081Z,14.70
2022-10-19T17:02:45.735Z,8.40
2022-10-19T17:07:49.568Z,16.10
2022-10-19T17:12:52.469Z,8.00
2022-10-19T17:17:57.486Z,6.30
2022-10-19T17:23:00.382Z,13.90
2022-10-19T17:28:03.348Z,142.00
2022-10-19T17:33:06.223Z,254.90
2022-10-19T17:38:09.115Z,150.90
2022-10-19T17:43:12.053Z,124.40
2022-10-19T17:48:14.918Z,70.90
2022-10-19T17:53:17.838Z,79.00
2022-10-19T17:58:21.315Z,129.30
2022-10-19T18:03:26.879Z,26.50
2022-10-19T18:08:32.509Z,33.10
2022-10-19T18:18:43.161Z,7.00
2022-10-19T18:23:46.180Z,10.00
2022-10-19T18:28:52.638Z,8.60
2022-10-19T18:34:02.360Z,7.70
2022-10-19T18:39:07.588Z,6.80
2022-10-19T18:44:13.950Z,9.40
2022-10-19T18:49:17.095Z,48.00
2022-10-19T18:54:20.324Z,12.50
2022-10-19T18:59:23.552Z,26.90
2022-10-19T19:04:26.829Z,13.50
2022-10-19T19:09:29.761Z,28.10
2022-10-19T19:14:32.656Z,36.80
2022-10-19T19:19:35.573Z,46.60
2022-10-19T19:24:38.553Z,25.40
2022-10-19T19:29:41.494Z,44.30
2022-10-19T19:34:44.450Z,45.60
2022-10-19T19:39:47.418Z,11.10
2022-10-19T19:44:50.321Z,6.10
2022-10-19T19:49:53.228Z,7.10
2022-10-19T19:54:56.161Z,10.80
2022-10-19T19:59:59.087Z,9.60
2022-10-19T20:05:02.053Z,8.10
2022-10-19T20:10:05.366Z,9.40
2022-10-19T20:15:09.041Z,11.40
2022-10-19T20:25:16.614Z,7.30
2022-10-19T20:30:19.628Z,6.10
2022-10-19T20:35:22.528Z,5.70
2022-10-19T20:40:25.507Z,6.10
2022-10-19T20:45:28.463Z,6.20
2022-10-19T20:50:31.373Z,7.10
2022-10-19T20:55:34.302Z,8.50
2022-10-19T21:00:37.210Z,8.50
2022-10-19T21:05:40.136Z,6.30
2022-10-19T21:10:43.333Z,19.80
2022-10-19T21:15:46.245Z,13.80
2022-10-19T21:20:49.140Z,18.70
2022-10-19T21:25:55.656Z,14.70
2022-10-19T21:31:06.922Z,8.40
2022-10-19T21:36:11.792Z,6.60
2022-10-19T21:41:20.985Z,6.60
2022-10-19T21:46:27.259Z,7.10
2022-10-19T21:51:49.036Z,7.30
2022-10-19T21:56:53.412Z,7.40
2022-10-19T22:01:57.258Z,6.60
2022-10-19T22:12:04.595Z,5.80
2022-10-19T22:17:07.589Z,5.00
2022-10-19T22:22:10.497Z,6.20
2022-10-19T22:27:13.407Z,7.00
2022-10-19T22:32:16.350Z,6.30
2022-10-19T22:37:19.284Z,5.70
2022-10-19T22:42:22.229Z,6.00
2022-10-19T22:47:25.113Z,5.00
2022-10-19T22:52:27.959Z,6.00
2022-10-19T22:57:30.819Z,5.80
2022-10-19T23:02:33.884Z,5.00
2022-10-19T23:07:38.339Z,5.00
2022-10-19T23:12:42.296Z,5.10
2022-10-19T23:22:49.928Z,5.70
2022-10-19T23:27:52.813Z,6.00
2022-10-19T23:32:55.670Z,6.30
2022-10-19T23:37:58.529Z,5.30
2022-10-19T23:43:01.465Z,5.70
2022-10-19T23:48:04.643Z,5.90
2022-10-19T23:53:07.569Z,6.50
2022-10-19T23:58:10.453Z,5.80
